sensor_id;sensor_type;location;lat;lon;timestamp;P1;durP1;ratioP1;P2;durP2;ratioP2
84510;SDS011;74730;43.858;18.424;2023-12-22T00:01:13;56.63;;;26.02;;
84510;SDS011;74730;43.858;18.424;2023-12-22T00:03:43;56.40;;;26.90;;
84510;SDS011;74730;43.858;18.424;2023-12-22T00:06:11;47.25;;;25.05;;
84510;SDS011;74730;43.858;18.424;2023-12-22T00:08:37;42.70;;;22.85;;
84510;SDS011;74730;43.858;18.424;2023-12-22T00:11:03;45.63;;;23.80;;
84510;SDS011;74730;43.858;18.424;2023-12-22T00:13:29;49.67;;;25.13;;
84510;SDS011;74730;43.858;18.424;2023-12-22T00:15:54;52.65;;;26.45;;
84510;SDS011;74730;43.858;18.424;2023-12-22T00:18:20;44.80;;;22.48;;
84510;SDS011;74730;43.858;18.424;2023-12-22T00:20:46;41.50;;;20.13;;
84510;SDS011;74730;43.858;18.424;2023-12-22T00:23:11;40.67;;;19.90;;
84510;SDS011;74730;43.858;18.424;2023-12-22T00:25:37;41.33;;;21.17;;
84510;SDS011;74730;43.858;18.424;2023-12-22T00:28:02;37.63;;;18.58;;
84510;SDS011;74730;43.858;18.424;2023-12-22T00:30:28;34.00;;;16.77;;
84510;SDS011;74730;43.858;18.424;2023-12-22T00:32:54;36.65;;;18.17;;
84510;SDS011;74730;43.858;18.424;2023-12-22T00:35:19;37.70;;;19.13;;
84510;SDS011;74730;43.858;18.424;2023-12-22T00:37:45;30.85;;;16.58;;
84510;SDS011;74730;43.858;18.424;2023-12-22T00:40:10;45.50;;;20.20;;
84510;SDS011;74730;43.858;18.424;2023-12-22T00:42:36;36.13;;;17.13;;
84510;SDS011;74730;43.858;18.424;2023-12-22T00:45:02;37.55;;;18.73;;
84510;SDS011;74730;43.858;18.424;2023-12-22T00:47:28;30.88;;;16.98;;
84510;SDS011;74730;43.858;18.424;2023-12-22T00:49:53;36.25;;;18.65;;
84510;SDS011;74730;43.858;18.424;2023-12-22T00:52:19;35.17;;;17.70;;
84510;SDS011;74730;43.858;18.424;2023-12-22T00:54:44;33.83;;;18.58;;
84510;SDS011;74730;43.858;18.424;2023-12-22T00:57:10;33.90;;;17.55;;
84510;SDS011;74730;43.858;18.424;2023-12-22T00:59:36;31.27;;;15.52;;
84510;SDS011;74730;43.858;18.424;2023-12-22T01:02:02;30.65;;;16.67;;
84510;SDS011;74730;43.858;18.424;2023-12-22T01:04:27;30.90;;;16.52;;
84510;SDS011;74730;43.858;18.424;2023-12-22T01:06:53;34.53;;;18.08;;
84510;SDS011;74730;43.858;18.424;2023-12-22T01:09:19;38.28;;;18.77;;
84510;SDS011;74730;43.858;18.424;2023-12-22T01:11:45;36.00;;;17.90;;
84510;SDS011;74730;43.858;18.424;2023-12-22T01:14:11;35.72;;;18.38;;
84510;SDS011;74730;43.858;18.424;2023-12-22T01:16:38;39.03;;;19.02;;
84510;SDS011;74730;43.858;18.424;2023-12-22T01:19:04;31.88;;;18.20;;
84510;SDS011;74730;43.858;18.424;2023-12-22T01:21:30;37.63;;;18.98;;
84510;SDS011;74730;43.858;18.424;2023-12-22T01:23:56;35.80;;;19.00;;
84510;SDS011;74730;43.858;18.424;2023-12-22T01:26:21;35.45;;;18.10;;
84510;SDS011;74730;43.858;18.424;2023-12-22T01:28:47;34.97;;;18.13;;
84510;SDS011;74730;43.858;18.424;2023-12-22T01:31:12;40.70;;;19.80;;
84510;SDS011;74730;43.858;18.424;2023-12-22T01:33:38;34.55;;;19.90;;
84510;SDS011;74730;43.858;18.424;2023-12-22T01:36:04;39.60;;;20.73;;
84510;SDS011;74730;43.858;18.424;2023-12-22T01:38:30;32.92;;;18.05;;
84510;SDS011;74730;43.858;18.424;2023-12-22T01:40:55;31.83;;;17.13;;
84510;SDS011;74730;43.858;18.424;2023-12-22T01:43:21;37.78;;;19.75;;
84510;SDS011;74730;43.858;18.424;2023-12-22T01:45:55;33.35;;;18.25;;
84510;SDS011;74730;43.858;18.424;2023-12-22T01:48:22;34.03;;;17.40;;
84510;SDS011;74730;43.858;18.424;2023-12-22T01:50:50;30.50;;;16.13;;
84510;SDS011;74730;43.858;18.424;2023-12-22T01:53:17;35.67;;;18.15;;
84510;SDS011;74730;43.858;18.424;2023-12-22T01:55:45;26.13;;;15.77;;
84510;SDS011;74730;43.858;18.424;2023-12-22T01:58:12;25.40;;;14.32;;
84510;SDS011;74730;43.858;18.424;2023-12-22T02:00:38;47.25;;;21.13;;
84510;SDS011;74730;43.858;18.424;2023-12-22T02:03:03;26.77;;;14.55;;
84510;SDS011;74730;43.858;18.424;2023-12-22T02:05:29;21.88;;;12.77;;
84510;SDS011;74730;43.858;18.424;2023-12-22T02:07:55;21.98;;;13.20;;
84510;SDS011;74730;43.858;18.424;2023-12-22T02:10:20;21.38;;;12.43;;
84510;SDS011;74730;43.858;18.424;2023-12-22T02:12:46;24.55;;;13.60;;
84510;SDS011;74730;43.858;18.424;2023-12-22T02:15:12;26.52;;;13.82;;
84510;SDS011;74730;43.858;18.424;2023-12-22T02:17:48;25.23;;;14.10;;
84510;SDS011;74730;43.858;18.424;2023-12-22T02:20:21;25.73;;;14.43;;
84510;SDS011;74730;43.858;18.424;2023-12-22T02:22:50;30.70;;;15.15;;
84510;SDS011;74730;43.858;18.424;2023-12-22T02:25:18;33.10;;;14.40;;
84510;SDS011;74730;43.858;18.424;2023-12-22T02:27:45;24.38;;;14.10;;
84510;SDS011;74730;43.858;18.424;2023-12-22T02:32:51;28.02;;;13.98;;
84510;SDS011;74730;43.858;18.424;2023-12-22T02:35:21;22.42;;;13.27;;
84510;SDS011;74730;43.858;18.424;2023-12-22T02:37:50;23.30;;;13.38;;
84510;SDS011;74730;43.858;18.424;2023-12-22T02:40:17;23.00;;;14.35;;
84510;SDS011;74730;43.858;18.424;2023-12-22T02:42:44;23.73;;;13.95;;
84510;SDS011;74730;43.858;18.424;2023-12-22T02:45:14;25.45;;;14.30;;
84510;SDS011;74730;43.858;18.424;2023-12-22T02:47:41;24.40;;;14.00;;
84510;SDS011;74730;43.858;18.424;2023-12-22T02:50:07;25.58;;;14.57;;
84510;SDS011;74730;43.858;18.424;2023-12-22T02:52:33;19.92;;;12.30;;
84510;SDS011;74730;43.858;18.424;2023-12-22T02:54:59;21.20;;;12.48;;
84510;SDS011;74730;43.858;18.424;2023-12-22T02:57:24;22.35;;;12.30;;
84510;SDS011;74730;43.858;18.424;2023-12-22T02:59:50;22.05;;;12.38;;
84510;SDS011;74730;43.858;18.424;2023-12-22T03:02:15;20.83;;;12.02;;
84510;SDS011;74730;43.858;18.424;2023-12-22T03:04:41;22.40;;;12.80;;
84510;SDS011;74730;43.858;18.424;2023-12-22T03:07:06;19.52;;;11.45;;
84510;SDS011;74730;43.858;18.424;2023-12-22T03:09:32;16.38;;;10.38;;
84510;SDS011;74730;43.858;18.424;2023-12-22T03:11:59;15.02;;;8.75;;
84510;SDS011;74730;43.858;18.424;2023-12-22T03:14:33;14.93;;;8.90;;
84510;SDS011;74730;43.858;18.424;2023-12-22T03:17:02;17.27;;;10.02;;
84510;SDS011;74730;43.858;18.424;2023-12-22T03:19:29;16.20;;;9.20;;
84510;SDS011;74730;43.858;18.424;2023-12-22T03:21:55;19.02;;;10.70;;
84510;SDS011;74730;43.858;18.424;2023-12-22T03:24:24;19.33;;;10.95;;
84510;SDS011;74730;43.858;18.424;2023-12-22T03:26:51;19.27;;;10.38;;
84510;SDS011;74730;43.858;18.424;2023-12-22T03:29:17;13.82;;;9.23;;
84510;SDS011;74730;43.858;18.424;2023-12-22T03:31:43;12.85;;;7.65;;
84510;SDS011;74730;43.858;18.424;2023-12-22T03:34:09;10.98;;;7.57;;
84510;SDS011;74730;43.858;18.424;2023-12-22T03:36:35;12.27;;;8.05;;
84510;SDS011;74730;43.858;18.424;2023-12-22T03:39:01;16.50;;;9.82;;
84510;SDS011;74730;43.858;18.424;2023-12-22T03:41:27;11.30;;;7.53;;
84510;SDS011;74730;43.858;18.424;2023-12-22T03:43:54;13.82;;;7.32;;
84510;SDS011;74730;43.858;18.424;2023-12-22T03:46:20;16.00;;;7.97;;
84510;SDS011;74730;43.858;18.424;2023-12-22T03:48:46;11.25;;;7.82;;
84510;SDS011;74730;43.858;18.424;2023-12-22T03:51:12;13.60;;;7.47;;
84510;SDS011;74730;43.858;18.424;2023-12-22T03:53:38;16.85;;;8.07;;
84510;SDS011;74730;43.858;18.424;2023-12-22T03:56:04;14.95;;;8.02;;
84510;SDS011;74730;43.858;18.424;2023-12-22T03:58:30;14.30;;;9.20;;
84510;SDS011;74730;43.858;18.424;2023-12-22T04:00:55;14.43;;;8.23;;
84510;SDS011;74730;43.858;18.424;2023-12-22T04:03:21;13.00;;;8.07;;
84510;SDS011;74730;43.858;18.424;2023-12-22T04:05:47;12.27;;;7.55;;
84510;SDS011;74730;43.858;18.424;2023-12-22T04:08:13;10.40;;;6.50;;
84510;SDS011;74730;43.858;18.424;2023-12-22T04:10:38;10.55;;;6.30;;
84510;SDS011;74730;43.858;18.424;2023-12-22T04:13:04;13.57;;;7.35;;
84510;SDS011;74730;43.858;18.424;2023-12-22T04:15:29;10.05;;;6.55;;
84510;SDS011;74730;43.858;18.424;2023-12-22T04:17:55;12.60;;;7.55;;
84510;SDS011;74730;43.858;18.424;2023-12-22T04:20:20;11.77;;;7.10;;
84510;SDS011;74730;43.858;18.424;2023-12-22T04:22:46;13.25;;;7.55;;
84510;SDS011;74730;43.858;18.424;2023-12-22T04:25:11;13.45;;;7.97;;
84510;SDS011;74730;43.858;18.424;2023-12-22T04:27:37;12.48;;;8.27;;
84510;SDS011;74730;43.858;18.424;2023-12-22T04:30:02;16.30;;;8.00;;
84510;SDS011;74730;43.858;18.424;2023-12-22T04:32:28;15.18;;;8.63;;
84510;SDS011;74730;43.858;18.424;2023-12-22T04:34:54;13.30;;;8.07;;
84510;SDS011;74730;43.858;18.424;2023-12-22T04:37:19;16.42;;;8.80;;
84510;SDS011;74730;43.858;18.424;2023-12-22T04:39:45;13.25;;;8.43;;
84510;SDS011;74730;43.858;18.424;2023-12-22T04:42:11;13.77;;;8.40;;
84510;SDS011;74730;43.858;18.424;2023-12-22T04:44:36;12.10;;;8.10;;
84510;SDS011;74730;43.858;18.424;2023-12-22T04:47:02;15.85;;;8.93;;
84510;SDS011;74730;43.858;18.424;2023-12-22T04:49:28;17.25;;;8.73;;
84510;SDS011;74730;43.858;18.424;2023-12-22T04:51:53;11.45;;;7.90;;
84510;SDS011;74730;43.858;18.424;2023-12-22T04:54:19;20.25;;;9.73;;
84510;SDS011;74730;43.858;18.424;2023-12-22T04:56:45;15.80;;;8.52;;
84510;SDS011;74730;43.858;18.424;2023-12-22T04:59:10;13.02;;;8.13;;
84510;SDS011;74730;43.858;18.424;2023-12-22T05:01:36;13.60;;;8.55;;
84510;SDS011;74730;43.858;18.424;2023-12-22T05:04:02;13.18;;;7.70;;
84510;SDS011;74730;43.858;18.424;2023-12-22T05:06:27;13.32;;;8.38;;
84510;SDS011;74730;43.858;18.424;2023-12-22T05:08:54;14.57;;;7.55;;
84510;SDS011;74730;43.858;18.424;2023-12-22T05:11:21;12.88;;;7.60;;
84510;SDS011;74730;43.858;18.424;2023-12-22T05:13:47;13.45;;;7.43;;
84510;SDS011;74730;43.858;18.424;2023-12-22T05:16:13;11.88;;;8.25;;
84510;SDS011;74730;43.858;18.424;2023-12-22T05:18:38;15.30;;;8.63;;
84510;SDS011;74730;43.858;18.424;2023-12-22T05:21:04;13.40;;;8.18;;
84510;SDS011;74730;43.858;18.424;2023-12-22T05:23:30;13.20;;;8.07;;
84510;SDS011;74730;43.858;18.424;2023-12-22T05:25:56;15.57;;;8.85;;
84510;SDS011;74730;43.858;18.424;2023-12-22T05:28:21;14.45;;;7.90;;
84510;SDS011;74730;43.858;18.424;2023-12-22T05:30:47;10.13;;;6.93;;
84510;SDS011;74730;43.858;18.424;2023-12-22T05:33:12;14.40;;;8.20;;
84510;SDS011;74730;43.858;18.424;2023-12-22T05:35:38;13.45;;;7.32;;
84510;SDS011;74730;43.858;18.424;2023-12-22T05:38:03;12.80;;;8.02;;
84510;SDS011;74730;43.858;18.424;2023-12-22T05:40:31;10.13;;;7.05;;
84510;SDS011;74730;43.858;18.424;2023-12-22T05:42:56;10.77;;;7.47;;
84510;SDS011;74730;43.858;18.424;2023-12-22T05:45:22;12.20;;;7.40;;
84510;SDS011;74730;43.858;18.424;2023-12-22T05:47:50;10.70;;;7.75;;
84510;SDS011;74730;43.858;18.424;2023-12-22T05:50:15;15.27;;;8.18;;
84510;SDS011;74730;43.858;18.424;2023-12-22T05:52:41;13.55;;;8.45;;
84510;SDS011;74730;43.858;18.424;2023-12-22T05:55:08;13.30;;;8.73;;
84510;SDS011;74730;43.858;18.424;2023-12-22T05:57:34;14.13;;;7.82;;
84510;SDS011;74730;43.858;18.424;2023-12-22T06:00:00;12.45;;;8.50;;
84510;SDS011;74730;43.858;18.424;2023-12-22T06:02:25;15.77;;;8.18;;
84510;SDS011;74730;43.858;18.424;2023-12-22T06:04:51;14.00;;;8.40;;
84510;SDS011;74730;43.858;18.424;2023-12-22T06:07:16;12.32;;;7.28;;
84510;SDS011;74730;43.858;18.424;2023-12-22T06:09:44;15.88;;;8.50;;
84510;SDS011;74730;43.858;18.424;2023-12-22T06:12:10;12.27;;;8.50;;
84510;SDS011;74730;43.858;18.424;2023-12-22T06:14:35;15.70;;;9.02;;
84510;SDS011;74730;43.858;18.424;2023-12-22T06:17:01;13.15;;;7.93;;
84510;SDS011;74730;43.858;18.424;2023-12-22T06:19:27;16.50;;;8.20;;
84510;SDS011;74730;43.858;18.424;2023-12-22T06:21:55;14.80;;;9.57;;
84510;SDS011;74730;43.858;18.424;2023-12-22T06:24:22;20.58;;;9.77;;
84510;SDS011;74730;43.858;18.424;2023-12-22T06:26:48;16.63;;;8.88;;
84510;SDS011;74730;43.858;18.424;2023-12-22T06:29:14;15.68;;;8.55;;
84510;SDS011;74730;43.858;18.424;2023-12-22T06:31:40;18.50;;;9.27;;
84510;SDS011;74730;43.858;18.424;2023-12-22T06:34:06;15.30;;;8.98;;
84510;SDS011;74730;43.858;18.424;2023-12-22T06:36:32;18.17;;;9.13;;
84510;SDS011;74730;43.858;18.424;2023-12-22T06:38:57;14.23;;;8.73;;
84510;SDS011;74730;43.858;18.424;2023-12-22T06:41:24;16.70;;;8.98;;
84510;SDS011;74730;43.858;18.424;2023-12-22T06:43:53;18.17;;;8.90;;
84510;SDS011;74730;43.858;18.424;2023-12-22T06:46:19;18.65;;;10.15;;
84510;SDS011;74730;43.858;18.424;2023-12-22T06:48:47;15.00;;;9.48;;
84510;SDS011;74730;43.858;18.424;2023-12-22T06:51:19;16.15;;;8.98;;
84510;SDS011;74730;43.858;18.424;2023-12-22T06:53:46;18.77;;;8.93;;
84510;SDS011;74730;43.858;18.424;2023-12-22T06:56:18;17.95;;;11.13;;
84510;SDS011;74730;43.858;18.424;2023-12-22T06:58:49;16.13;;;10.30;;
84510;SDS011;74730;43.858;18.424;2023-12-22T07:01:19;13.82;;;9.10;;
84510;SDS011;74730;43.858;18.424;2023-12-22T07:03:53;15.18;;;8.70;;
84510;SDS011;74730;43.858;18.424;2023-12-22T07:06:20;14.00;;;8.23;;
84510;SDS011;74730;43.858;18.424;2023-12-22T07:11:36;11.18;;;8.02;;
84510;SDS011;74730;43.858;18.424;2023-12-22T07:14:23;14.88;;;9.30;;
84510;SDS011;74730;43.858;18.424;2023-12-22T07:16:49;18.63;;;9.13;;
84510;SDS011;74730;43.858;18.424;2023-12-22T07:19:15;18.13;;;9.95;;
84510;SDS011;74730;43.858;18.424;2023-12-22T07:21:41;20.02;;;10.20;;
84510;SDS011;74730;43.858;18.424;2023-12-22T07:24:07;19.50;;;10.98;;
84510;SDS011;74730;43.858;18.424;2023-12-22T07:26:33;20.00;;;11.23;;
84510;SDS011;74730;43.858;18.424;2023-12-22T07:28:59;18.65;;;10.90;;
84510;SDS011;74730;43.858;18.424;2023-12-22T07:31:24;17.55;;;10.68;;
84510;SDS011;74730;43.858;18.424;2023-12-22T07:33:50;17.52;;;10.98;;
84510;SDS011;74730;43.858;18.424;2023-12-22T07:36:17;18.80;;;10.52;;
84510;SDS011;74730;43.858;18.424;2023-12-22T07:38:44;19.95;;;11.85;;
84510;SDS011;74730;43.858;18.424;2023-12-22T07:41:09;23.15;;;13.13;;
84510;SDS011;74730;43.858;18.424;2023-12-22T07:43:35;18.02;;;10.73;;
84510;SDS011;74730;43.858;18.424;2023-12-22T07:46:01;15.35;;;10.55;;
84510;SDS011;74730;43.858;18.424;2023-12-22T07:48:27;21.13;;;12.00;;
84510;SDS011;74730;43.858;18.424;2023-12-22T07:50:52;20.33;;;11.10;;
84510;SDS011;74730;43.858;18.424;2023-12-22T07:53:19;16.02;;;9.77;;
84510;SDS011;74730;43.858;18.424;2023-12-22T07:55:45;16.10;;;10.23;;
84510;SDS011;74730;43.858;18.424;2023-12-22T07:58:12;19.70;;;10.80;;
84510;SDS011;74730;43.858;18.424;2023-12-22T08:00:39;17.95;;;11.95;;
84510;SDS011;74730;43.858;18.424;2023-12-22T08:03:05;15.13;;;9.70;;
84510;SDS011;74730;43.858;18.424;2023-12-22T08:05:37;19.08;;;11.50;;
84510;SDS011;74730;43.858;18.424;2023-12-22T08:08:03;19.83;;;10.85;;
84510;SDS011;74730;43.858;18.424;2023-12-22T08:10:29;17.50;;;10.52;;
84510;SDS011;74730;43.858;18.424;2023-12-22T08:12:54;17.02;;;11.82;;
84510;SDS011;74730;43.858;18.424;2023-12-22T08:15:20;19.73;;;11.77;;
84510;SDS011;74730;43.858;18.424;2023-12-22T08:17:47;20.40;;;13.05;;
84510;SDS011;74730;43.858;18.424;2023-12-22T08:20:16;18.90;;;12.73;;
84510;SDS011;74730;43.858;18.424;2023-12-22T08:22:49;32.40;;;13.88;;
84510;SDS011;74730;43.858;18.424;2023-12-22T08:25:16;27.27;;;14.35;;
84510;SDS011;74730;43.858;18.424;2023-12-22T08:27:47;30.77;;;13.93;;
84510;SDS011;74730;43.858;18.424;2023-12-22T08:30:13;34.92;;;15.05;;
84510;SDS011;74730;43.858;18.424;2023-12-22T08:32:40;25.88;;;12.68;;
84510;SDS011;74730;43.858;18.424;2023-12-22T08:35:05;29.77;;;11.82;;
84510;SDS011;74730;43.858;18.424;2023-12-22T08:37:32;25.73;;;13.77;;
84510;SDS011;74730;43.858;18.424;2023-12-22T08:39:58;26.33;;;15.38;;
84510;SDS011;74730;43.858;18.424;2023-12-22T08:42:24;24.42;;;15.45;;
84510;SDS011;74730;43.858;18.424;2023-12-22T08:44:51;21.83;;;13.93;;
84510;SDS011;74730;43.858;18.424;2023-12-22T08:47:16;29.42;;;15.52;;
84510;SDS011;74730;43.858;18.424;2023-12-22T08:49:45;21.75;;;11.63;;
84510;SDS011;74730;43.858;18.424;2023-12-22T08:52:11;8.77;;;5.13;;
84510;SDS011;74730;43.858;18.424;2023-12-22T08:54:39;42.13;;;17.27;;
84510;SDS011;74730;43.858;18.424;2023-12-22T08:57:05;35.30;;;16.55;;
84510;SDS011;74730;43.858;18.424;2023-12-22T08:59:30;27.98;;;15.68;;
84510;SDS011;74730;43.858;18.424;2023-12-22T09:01:56;28.40;;;15.30;;
84510;SDS011;74730;43.858;18.424;2023-12-22T09:04:22;30.05;;;15.98;;
84510;SDS011;74730;43.858;18.424;2023-12-22T09:06:48;27.88;;;16.33;;
84510;SDS011;74730;43.858;18.424;2023-12-22T09:09:15;24.55;;;13.95;;
84510;SDS011;74730;43.858;18.424;2023-12-22T09:11:43;37.67;;;15.65;;
84510;SDS011;74730;43.858;18.424;2023-12-22T09:14:09;24.55;;;15.68;;
84510;SDS011;74730;43.858;18.424;2023-12-22T09:16:36;33.53;;;17.83;;
84510;SDS011;74730;43.858;18.424;2023-12-22T09:19:02;22.45;;;13.70;;
84510;SDS011;74730;43.858;18.424;2023-12-22T09:21:29;21.48;;;12.55;;
84510;SDS011;74730;43.858;18.424;2023-12-22T09:23:55;17.13;;;10.75;;
84510;SDS011;74730;43.858;18.424;2023-12-22T09:26:20;24.77;;;12.60;;
84510;SDS011;74730;43.858;18.424;2023-12-22T09:28:46;21.92;;;13.10;;
84510;SDS011;74730;43.858;18.424;2023-12-22T09:31:12;32.15;;;19.08;;
84510;SDS011;74730;43.858;18.424;2023-12-22T09:33:39;23.83;;;14.85;;
84510;SDS011;74730;43.858;18.424;2023-12-22T09:36:06;12.40;;;6.93;;
84510;SDS011;74730;43.858;18.424;2023-12-22T09:38:32;9.05;;;5.32;;
84510;SDS011;74730;43.858;18.424;2023-12-22T09:40:58;8.05;;;5.18;;
84510;SDS011;74730;43.858;18.424;2023-12-22T09:43:24;7.55;;;4.55;;
84510;SDS011;74730;43.858;18.424;2023-12-22T09:45:50;8.10;;;4.80;;
84510;SDS011;74730;43.858;18.424;2023-12-22T09:48:17;11.25;;;5.18;;
84510;SDS011;74730;43.858;18.424;2023-12-22T09:50:46;22.30;;;7.43;;
84510;SDS011;74730;43.858;18.424;2023-12-22T09:53:12;34.08;;;9.57;;
84510;SDS011;74730;43.858;18.424;2023-12-22T09:55:44;11.02;;;5.75;;
84510;SDS011;74730;43.858;18.424;2023-12-22T09:58:14;6.13;;;3.90;;
84510;SDS011;74730;43.858;18.424;2023-12-22T10:00:43;10.13;;;5.70;;
84510;SDS011;74730;43.858;18.424;2023-12-22T10:03:14;15.32;;;7.22;;
84510;SDS011;74730;43.858;18.424;2023-12-22T10:05:41;10.60;;;5.60;;
84510;SDS011;74730;43.858;18.424;2023-12-22T10:08:08;8.73;;;4.63;;
84510;SDS011;74730;43.858;18.424;2023-12-22T10:10:38;10.43;;;5.05;;
84510;SDS011;74730;43.858;18.424;2023-12-22T10:13:08;9.93;;;5.28;;
84510;SDS011;74730;43.858;18.424;2023-12-22T10:15:41;10.45;;;4.50;;
84510;SDS011;74730;43.858;18.424;2023-12-22T10:18:11;11.52;;;5.72;;
84510;SDS011;74730;43.858;18.424;2023-12-22T10:20:38;15.90;;;7.88;;
84510;SDS011;74730;43.858;18.424;2023-12-22T10:23:03;17.77;;;9.43;;
84510;SDS011;74730;43.858;18.424;2023-12-22T10:25:29;12.52;;;6.10;;
84510;SDS011;74730;43.858;18.424;2023-12-22T10:27:55;17.55;;;7.35;;
84510;SDS011;74730;43.858;18.424;2023-12-22T10:30:22;10.43;;;6.18;;
84510;SDS011;74730;43.858;18.424;2023-12-22T10:32:50;10.95;;;6.50;;
84510;SDS011;74730;43.858;18.424;2023-12-22T10:35:17;27.30;;;10.43;;
84510;SDS011;74730;43.858;18.424;2023-12-22T10:37:43;15.05;;;7.97;;
84510;SDS011;74730;43.858;18.424;2023-12-22T10:40:10;22.63;;;8.85;;
84510;SDS011;74730;43.858;18.424;2023-12-22T10:42:37;17.95;;;8.57;;
84510;SDS011;74730;43.858;18.424;2023-12-22T10:45:03;16.55;;;8.82;;
84510;SDS011;74730;43.858;18.424;2023-12-22T10:47:29;16.08;;;6.68;;
84510;SDS011;74730;43.858;18.424;2023-12-22T10:49:54;15.98;;;7.10;;
84510;SDS011;74730;43.858;18.424;2023-12-22T10:52:20;12.00;;;6.43;;
84510;SDS011;74730;43.858;18.424;2023-12-22T10:54:46;9.40;;;5.40;;
84510;SDS011;74730;43.858;18.424;2023-12-22T10:57:16;13.82;;;6.43;;
84510;SDS011;74730;43.858;18.424;2023-12-22T10:59:46;13.43;;;6.43;;
84510;SDS011;74730;43.858;18.424;2023-12-22T11:02:15;10.75;;;6.13;;
84510;SDS011;74730;43.858;18.424;2023-12-22T11:05:02;9.65;;;5.05;;
84510;SDS011;74730;43.858;18.424;2023-12-22T11:07:34;5.22;;;3.53;;
84510;SDS011;74730;43.858;18.424;2023-12-22T11:10:05;11.57;;;4.00;;
84510;SDS011;74730;43.858;18.424;2023-12-22T11:12:36;10.18;;;5.75;;
84510;SDS011;74730;43.858;18.424;2023-12-22T11:15:03;10.05;;;4.72;;
84510;SDS011;74730;43.858;18.424;2023-12-22T11:17:33;11.30;;;6.00;;
84510;SDS011;74730;43.858;18.424;2023-12-22T11:20:00;10.07;;;5.53;;
84510;SDS011;74730;43.858;18.424;2023-12-22T11:22:27;8.68;;;4.32;;
84510;SDS011;74730;43.858;18.424;2023-12-22T11:24:55;8.55;;;5.00;;
84510;SDS011;74730;43.858;18.424;2023-12-22T11:27:24;8.13;;;5.00;;
84510;SDS011;74730;43.858;18.424;2023-12-22T11:29:54;8.75;;;4.97;;
84510;SDS011;74730;43.858;18.424;2023-12-22T11:32:20;9.07;;;5.47;;
84510;SDS011;74730;43.858;18.424;2023-12-22T11:34:46;15.50;;;7.82;;
84510;SDS011;74730;43.858;18.424;2023-12-22T11:37:13;26.05;;;12.90;;
84510;SDS011;74730;43.858;18.424;2023-12-22T11:39:42;22.98;;;12.15;;
84510;SDS011;74730;43.858;18.424;2023-12-22T11:42:10;20.48;;;11.63;;
84510;SDS011;74730;43.858;18.424;2023-12-22T11:44:39;23.30;;;11.82;;
84510;SDS011;74730;43.858;18.424;2023-12-22T11:47:06;25.90;;;13.73;;
84510;SDS011;74730;43.858;18.424;2023-12-22T11:49:37;21.17;;;11.50;;
84510;SDS011;74730;43.858;18.424;2023-12-22T11:52:11;18.77;;;11.10;;
84510;SDS011;74730;43.858;18.424;2023-12-22T12:00:01;11.88;;;5.82;;
84510;SDS011;74730;43.858;18.424;2023-12-22T12:02:39;12.88;;;5.90;;
84510;SDS011;74730;43.858;18.424;2023-12-22T12:05:09;8.68;;;5.43;;
84510;SDS011;74730;43.858;18.424;2023-12-22T12:07:44;6.00;;;3.75;;
84510;SDS011;74730;43.858;18.424;2023-12-22T12:10:13;6.55;;;4.35;;
84510;SDS011;74730;43.858;18.424;2023-12-22T12:13:05;8.05;;;5.35;;
84510;SDS011;74730;43.858;18.424;2023-12-22T12:15:33;8.90;;;5.80;;
84510;SDS011;74730;43.858;18.424;2023-12-22T12:17:59;12.02;;;6.75;;
84510;SDS011;74730;43.858;18.424;2023-12-22T12:20:25;13.90;;;6.90;;
84510;SDS011;74730;43.858;18.424;2023-12-22T12:22:52;14.05;;;6.43;;
84510;SDS011;74730;43.858;18.424;2023-12-22T12:25:23;10.98;;;5.35;;
84510;SDS011;74730;43.858;18.424;2023-12-22T12:28:01;9.90;;;5.30;;
84510;SDS011;74730;43.858;18.424;2023-12-22T12:30:31;9.85;;;5.80;;
84510;SDS011;74730;43.858;18.424;2023-12-22T12:33:10;14.15;;;7.60;;
84510;SDS011;74730;43.858;18.424;2023-12-22T12:35:41;19.52;;;8.75;;
84510;SDS011;74730;43.858;18.424;2023-12-22T12:38:09;18.83;;;9.70;;
84510;SDS011;74730;43.858;18.424;2023-12-22T12:40:35;10.32;;;5.75;;
84510;SDS011;74730;43.858;18.424;2023-12-22T12:43:04;12.77;;;6.35;;
84510;SDS011;74730;43.858;18.424;2023-12-22T12:45:30;10.60;;;6.20;;
84510;SDS011;74730;43.858;18.424;2023-12-22T12:47:56;7.10;;;4.38;;
84510;SDS011;74730;43.858;18.424;2023-12-22T12:50:26;7.75;;;4.32;;
84510;SDS011;74730;43.858;18.424;2023-12-22T12:52:53;10.88;;;5.72;;
84510;SDS011;74730;43.858;18.424;2023-12-22T12:55:21;13.07;;;6.28;;
84510;SDS011;74730;43.858;18.424;2023-12-22T12:57:54;11.05;;;5.70;;
84510;SDS011;74730;43.858;18.424;2023-12-22T13:00:27;11.93;;;6.60;;
84510;SDS011;74730;43.858;18.424;2023-12-22T13:02:56;9.90;;;5.70;;
84510;SDS011;74730;43.858;18.424;2023-12-22T13:05:25;8.05;;;4.53;;
84510;SDS011;74730;43.858;18.424;2023-12-22T13:07:51;11.18;;;5.68;;
84510;SDS011;74730;43.858;18.424;2023-12-22T13:10:23;5.38;;;3.67;;
84510;SDS011;74730;43.858;18.424;2023-12-22T13:12:50;6.93;;;4.65;;
84510;SDS011;74730;43.858;18.424;2023-12-22T13:15:19;6.50;;;4.45;;
84510;SDS011;74730;43.858;18.424;2023-12-22T13:17:45;7.65;;;4.32;;
84510;SDS011;74730;43.858;18.424;2023-12-22T13:20:11;9.30;;;4.47;;
84510;SDS011;74730;43.858;18.424;2023-12-22T13:22:37;6.32;;;4.07;;
84510;SDS011;74730;43.858;18.424;2023-12-22T13:25:04;7.32;;;4.00;;
84510;SDS011;74730;43.858;18.424;2023-12-22T13:27:29;8.82;;;4.43;;
84510;SDS011;74730;43.858;18.424;2023-12-22T13:29:55;10.68;;;5.90;;
84510;SDS011;74730;43.858;18.424;2023-12-22T13:32:21;10.70;;;6.22;;
84510;SDS011;74730;43.858;18.424;2023-12-22T13:34:49;8.95;;;4.60;;
84510;SDS011;74730;43.858;18.424;2023-12-22T13:37:16;12.98;;;5.03;;
84510;SDS011;74730;43.858;18.424;2023-12-22T13:39:42;8.48;;;5.55;;
84510;SDS011;74730;43.858;18.424;2023-12-22T13:42:14;9.05;;;5.05;;
84510;SDS011;74730;43.858;18.424;2023-12-22T13:44:42;7.85;;;4.82;;
84510;SDS011;74730;43.858;18.424;2023-12-22T13:47:09;9.05;;;5.32;;
84510;SDS011;74730;43.858;18.424;2023-12-22T13:49:34;8.98;;;5.53;;
84510;SDS011;74730;43.858;18.424;2023-12-22T13:52:00;10.43;;;6.10;;
84510;SDS011;74730;43.858;18.424;2023-12-22T13:54:32;11.33;;;6.13;;
84510;SDS011;74730;43.858;18.424;2023-12-22T13:56:58;11.57;;;6.65;;
84510;SDS011;74730;43.858;18.424;2023-12-22T13:59:33;12.40;;;5.82;;
84510;SDS011;74730;43.858;18.424;2023-12-22T14:02:00;12.20;;;5.95;;
84510;SDS011;74730;43.858;18.424;2023-12-22T14:04:28;8.55;;;3.85;;
84510;SDS011;74730;43.858;18.424;2023-12-22T14:06:54;5.50;;;4.18;;
84510;SDS011;74730;43.858;18.424;2023-12-22T14:09:19;10.02;;;4.65;;
84510;SDS011;74730;43.858;18.424;2023-12-22T14:11:49;6.80;;;3.60;;
84510;SDS011;74730;43.858;18.424;2023-12-22T14:14:15;4.70;;;3.08;;
84510;SDS011;74730;43.858;18.424;2023-12-22T14:16:42;5.65;;;3.45;;
84510;SDS011;74730;43.858;18.424;2023-12-22T14:19:07;7.28;;;3.42;;
84510;SDS011;74730;43.858;18.424;2023-12-22T14:21:33;6.45;;;3.75;;
84510;SDS011;74730;43.858;18.424;2023-12-22T14:23:58;6.22;;;4.00;;
84510;SDS011;74730;43.858;18.424;2023-12-22T14:26:24;6.95;;;4.45;;
84510;SDS011;74730;43.858;18.424;2023-12-22T14:28:49;9.15;;;4.07;;